sensor_id;sensor_type;location;lat;lon;timestamp;pressure;altitude;pressure_sealevel;temperature;humidity
70690;BME280;58267;51.156;17.044;2023-05-19T00:01:30;101296.20;;;14.81;37.89
70690;BME280;58267;51.156;17.044;2023-05-19T00:03:57;101296.03;;;14.50;38.02
70690;BME280;58267;51.156;17.044;2023-05-19T00:06:23;101293.83;;;14.80;37.71
70690;BME280;58267;51.156;17.044;2023-05-19T00:08:47;101297.35;;;14.79;37.89
70690;BME280;58267;51.156;17.044;2023-05-19T00:11:12;101301.29;;;14.70;37.66
70690;BME280;58267;51.156;17.044;2023-05-19T00:13:37;101299.14;;;14.69;38.02
70690;BME280;58267;51.156;17.044;2023-05-19T00:16:03;101301.73;;;14.62;37.99
70690;BME280;58267;51.156;17.044;2023-05-19T00:18:28;101302.22;;;14.40;37.96
70690;BME280;58267;51.156;17.044;2023-05-19T00:20:54;101302.47;;;14.52;38.13
70690;BME280;58267;51.156;17.044;2023-05-19T00:23:19;101302.30;;;14.35;37.97
70690;BME280;58267;51.156;17.044;2023-05-19T00:25:44;101301.60;;;14.38;38.31
70690;BME280;58267;51.156;17.044;2023-05-19T00:28:09;101302.37;;;14.61;38.29
70690;BME280;58267;51.156;17.044;2023-05-19T00:30:34;101303.35;;;14.44;38.10
70690;BME280;58267;51.156;17.044;2023-05-19T00:33:00;101303.55;;;14.18;38.55
70690;BME280;58267;51.156;17.044;2023-05-19T00:35:25;101304.04;;;14.22;38.45
70690;BME280;58267;51.156;17.044;2023-05-19T00:37:50;101302.90;;;14.26;38.28
70690;BME280;58267;51.156;17.044;2023-05-19T00:40:16;101303.94;;;14.35;38.55
70690;BME280;58267;51.156;17.044;2023-05-19T00:42:41;101302.24;;;13.83;38.66
70690;BME280;58267;51.156;17.044;2023-05-19T00:45:07;101300.45;;;14.09;38.60
70690;BME280;58267;51.156;17.044;2023-05-19T00:47:32;101301.66;;;14.06;38.62
70690;BME280;58267;51.156;17.044;2023-05-19T00:49:57;101301.87;;;13.95;38.83
70690;BME280;58267;51.156;17.044;2023-05-19T00:52:23;101302.19;;;14.13;38.43
70690;BME280;58267;51.156;17.044;2023-05-19T00:54:48;101303.96;;;14.07;38.59
70690;BME280;58267;51.156;17.044;2023-05-19T00:57:13;101304.77;;;14.23;38.63
70690;BME280;58267;51.156;17.044;2023-05-19T00:59:39;101302.28;;;14.01;38.71
70690;BME280;58267;51.156;17.044;2023-05-19T01:02:04;101302.50;;;14.15;39.06
70690;BME280;58267;51.156;17.044;2023-05-19T01:04:30;101303.48;;;14.03;39.03
70690;BME280;58267;51.156;17.044;2023-05-19T01:06:55;101303.77;;;14.10;38.95
70690;BME280;58267;51.156;17.044;2023-05-19T01:09:21;101300.23;;;14.33;39.01
70690;BME280;58267;51.156;17.044;2023-05-19T01:11:45;101298.88;;;14.32;38.53
70690;BME280;58267;51.156;17.044;2023-05-19T01:14:11;101295.65;;;14.39;38.31
70690;BME280;58267;51.156;17.044;2023-05-19T01:16:40;101299.23;;;14.61;38.41
70690;BME280;58267;51.156;17.044;2023-05-19T01:19:12;101302.49;;;14.26;38.62
70690;BME280;58267;51.156;17.044;2023-05-19T01:24:00;101304.80;;;14.27;38.80
70690;BME280;58267;51.156;17.044;2023-05-19T01:28:58;101306.94;;;14.20;39.09
70690;BME280;58267;51.156;17.044;2023-05-19T01:31:11;101305.95;;;14.32;38.75
70690;BME280;58267;51.156;17.044;2023-05-19T01:33:35;101304.84;;;14.47;38.95
70690;BME280;58267;51.156;17.044;2023-05-19T01:36:02;101305.18;;;14.19;39.25
70690;BME280;58267;51.156;17.044;2023-05-19T01:38:27;101306.63;;;14.08;39.42
70690;BME280;58267;51.156;17.044;2023-05-19T01:40:53;101309.00;;;13.98;39.68
70690;BME280;58267;51.156;17.044;2023-05-19T01:43:20;101309.71;;;13.89;39.58
70690;BME280;58267;51.156;17.044;2023-05-19T01:45:43;101310.61;;;13.85;39.68
70690;BME280;58267;51.156;17.044;2023-05-19T01:48:07;101313.03;;;14.11;39.57
70690;BME280;58267;51.156;17.044;2023-05-19T01:50:33;101312.67;;;14.01;39.25
70690;BME280;58267;51.156;17.044;2023-05-19T01:52:58;101309.65;;;14.05;38.97
70690;BME280;58267;51.156;17.044;2023-05-19T01:55:24;101306.68;;;13.94;39.05
70690;BME280;58267;51.156;17.044;2023-05-19T01:57:58;101305.55;;;13.76;39.28
70690;BME280;58267;51.156;17.044;2023-05-19T02:00:20;101303.95;;;13.83;39.47
70690;BME280;58267;51.156;17.044;2023-05-19T02:02:47;101301.16;;;13.88;39.39
70690;BME280;58267;51.156;17.044;2023-05-19T02:05:11;101303.36;;;14.11;39.63
70690;BME280;58267;51.156;17.044;2023-05-19T02:07:34;101302.50;;;13.91;39.61
70690;BME280;58267;51.156;17.044;2023-05-19T02:10:03;101300.77;;;13.93;39.61
70690;BME280;58267;51.156;17.044;2023-05-19T02:12:31;101300.17;;;14.22;39.48
70690;BME280;58267;51.156;17.044;2023-05-19T02:14:51;101299.85;;;14.12;39.07
70690;BME280;58267;51.156;17.044;2023-05-19T02:17:13;101301.18;;;14.02;39.43
70690;BME280;58267;51.156;17.044;2023-05-19T02:19:38;101300.41;;;13.93;39.70
70690;BME280;58267;51.156;17.044;2023-05-19T02:22:03;101303.77;;;14.02;39.59
70690;BME280;58267;51.156;17.044;2023-05-19T02:24:28;101303.73;;;14.00;39.63
70690;BME280;58267;51.156;17.044;2023-05-19T02:26:54;101303.10;;;14.11;39.26
70690;BME280;58267;51.156;17.044;2023-05-19T02:29:19;101300.96;;;14.11;39.07
70690;BME280;58267;51.156;17.044;2023-05-19T02:31:44;101298.82;;;14.28;38.88
70690;BME280;58267;51.156;17.044;2023-05-19T02:34:09;101294.54;;;14.14;38.72
70690;BME280;58267;51.156;17.044;2023-05-19T02:36:35;101293.29;;;14.58;38.83
70690;BME280;58267;51.156;17.044;2023-05-19T02:39:01;101291.28;;;13.87;39.19
70690;BME280;58267;51.156;17.044;2023-05-19T02:41:26;101292.77;;;13.75;39.42
70690;BME280;58267;51.156;17.044;2023-05-19T02:43:51;101289.15;;;14.01;39.41
70690;BME280;58267;51.156;17.044;2023-05-19T02:46:17;101290.60;;;13.69;39.63
70690;BME280;58267;51.156;17.044;2023-05-19T02:48:42;101289.29;;;13.74;39.61
70690;BME280;58267;51.156;17.044;2023-05-19T02:51:08;101289.66;;;14.01;39.64
70690;BME280;58267;51.156;17.044;2023-05-19T02:53:34;101289.24;;;14.06;39.56
70690;BME280;58267;51.156;17.044;2023-05-19T02:55:59;101287.68;;;14.38;39.48
70690;BME280;58267;51.156;17.044;2023-05-19T02:58:25;101285.73;;;13.73;39.68
70690;BME280;58267;51.156;17.044;2023-05-19T03:00:50;101287.93;;;13.90;39.83
70690;BME280;58267;51.156;17.044;2023-05-19T03:03:15;101286.90;;;13.99;39.99
70690;BME280;58267;51.156;17.044;2023-05-19T03:05:41;101284.75;;;13.98;40.27
70690;BME280;58267;51.156;17.044;2023-05-19T03:08:06;101283.30;;;13.80;40.23
70690;BME280;58267;51.156;17.044;2023-05-19T03:10:32;101285.57;;;14.03;40.25
70690;BME280;58267;51.156;17.044;2023-05-19T03:12:57;101283.81;;;13.70;39.81
70690;BME280;58267;51.156;17.044;2023-05-19T03:15:23;101282.83;;;13.90;39.57
70690;BME280;58267;51.156;17.044;2023-05-19T03:17:49;101285.57;;;13.86;39.77
70690;BME280;58267;51.156;17.044;2023-05-19T03:20:14;101285.66;;;14.13;39.79
70690;BME280;58267;51.156;17.044;2023-05-19T03:22:39;101285.94;;;13.94;39.83
70690;BME280;58267;51.156;17.044;2023-05-19T03:25:05;101287.75;;;14.04;39.77
70690;BME280;58267;51.156;17.044;2023-05-19T03:27:30;101285.23;;;14.21;39.83
70690;BME280;58267;51.156;17.044;2023-05-19T03:29:56;101287.82;;;14.02;39.85
70690;BME280;58267;51.156;17.044;2023-05-19T03:32:21;101287.02;;;14.33;39.77
70690;BME280;58267;51.156;17.044;2023-05-19T03:34:46;101282.93;;;14.13;39.50
70690;BME280;58267;51.156;17.044;2023-05-19T03:37:12;101285.92;;;14.05;39.58
70690;BME280;58267;51.156;17.044;2023-05-19T03:39:38;101283.68;;;14.05;39.78
70690;BME280;58267;51.156;17.044;2023-05-19T03:42:03;101284.89;;;14.02;39.64
70690;BME280;58267;51.156;17.044;2023-05-19T03:44:29;101280.35;;;13.92;39.72
70690;BME280;58267;51.156;17.044;2023-05-19T03:46:54;101283.13;;;13.80;39.88
70690;BME280;58267;51.156;17.044;2023-05-19T03:49:20;101283.95;;;13.86;39.68
70690;BME280;58267;51.156;17.044;2023-05-19T03:51:45;101284.56;;;14.08;39.99
70690;BME280;58267;51.156;17.044;2023-05-19T03:54:11;101289.22;;;14.13;40.03
70690;BME280;58267;51.156;17.044;2023-05-19T03:56:38;101285.51;;;14.23;40.40
70690;BME280;58267;51.156;17.044;2023-05-19T03:59:02;101284.25;;;14.00;40.63
70690;BME280;58267;51.156;17.044;2023-05-19T04:01:28;101288.64;;;14.00;40.87
70690;BME280;58267;51.156;17.044;2023-05-19T04:03:54;101289.32;;;13.97;40.92
70690;BME280;58267;51.156;17.044;2023-05-19T04:06:20;101288.76;;;14.13;40.70
70690;BME280;58267;51.156;17.044;2023-05-19T04:08:45;101292.35;;;14.14;40.66
70690;BME280;58267;51.156;17.044;2023-05-19T04:11:11;101295.52;;;14.24;40.70
70690;BME280;58267;51.156;17.044;2023-05-19T04:13:37;101294.84;;;14.31;40.51
70690;BME280;58267;51.156;17.044;2023-05-19T04:16:03;101293.28;;;14.40;40.42
70690;BME280;58267;51.156;17.044;2023-05-19T04:18:28;101295.54;;;14.43;40.34
70690;BME280;58267;51.156;17.044;2023-05-19T04:20:53;101299.56;;;14.26;40.40
70690;BME280;58267;51.156;17.044;2023-05-19T04:23:18;101301.40;;;14.53;40.37
70690;BME280;58267;51.156;17.044;2023-05-19T04:25:44;101301.15;;;14.63;40.27
70690;BME280;58267;51.156;17.044;2023-05-19T04:28:10;101300.90;;;14.61;40.39
70690;BME280;58267;51.156;17.044;2023-05-19T04:30:35;101299.40;;;14.66;40.28
70690;BME280;58267;51.156;17.044;2023-05-19T04:33:01;101295.25;;;14.96;40.33
70690;BME280;58267;51.156;17.044;2023-05-19T04:35:27;101298.03;;;14.68;40.30
70690;BME280;58267;51.156;17.044;2023-05-19T04:37:53;101295.88;;;14.72;40.27
70690;BME280;58267;51.156;17.044;2023-05-19T04:40:19;101291.67;;;14.82;40.01
70690;BME280;58267;51.156;17.044;2023-05-19T04:42:44;101295.46;;;14.74;40.03
70690;BME280;58267;51.156;17.044;2023-05-19T04:45:11;101296.33;;;14.56;39.87
70690;BME280;58267;51.156;17.044;2023-05-19T04:47:36;101297.51;;;14.81;39.76
70690;BME280;58267;51.156;17.044;2023-05-19T04:50:01;101299.91;;;14.33;39.84
70690;BME280;58267;51.156;17.044;2023-05-19T04:52:26;101299.12;;;14.71;39.98
70690;BME280;58267;51.156;17.044;2023-05-19T04:54:52;101301.72;;;14.51;39.93
70690;BME280;58267;51.156;17.044;2023-05-19T04:57:17;101302.84;;;14.27;39.87
70690;BME280;58267;51.156;17.044;2023-05-19T04:59:42;101307.02;;;14.60;39.86
70690;BME280;58267;51.156;17.044;2023-05-19T05:02:07;101307.17;;;14.29;39.75
70690;BME280;58267;51.156;17.044;2023-05-19T05:04:32;101309.36;;;14.36;39.63
70690;BME280;58267;51.156;17.044;2023-05-19T05:06:58;101308.01;;;14.98;39.55
70690;BME280;58267;51.156;17.044;2023-05-19T05:09:23;101309.62;;;15.10;39.20
70690;BME280;58267;51.156;17.044;2023-05-19T05:11:49;101308.23;;;14.64;39.28
70690;BME280;58267;51.156;17.044;2023-05-19T05:14:14;101309.06;;;14.68;39.08
70690;BME280;58267;51.156;17.044;2023-05-19T05:16:40;101310.31;;;14.97;38.95
70690;BME280;58267;51.156;17.044;2023-05-19T05:19:05;101312.07;;;15.10;38.87
70690;BME280;58267;51.156;17.044;2023-05-19T05:21:30;101314.70;;;14.82;38.97
70690;BME280;58267;51.156;17.044;2023-05-19T05:23:56;101316.58;;;15.50;38.59
70690;BME280;58267;51.156;17.044;2023-05-19T05:26:21;101315.82;;;15.11;38.43
70690;BME280;58267;51.156;17.044;2023-05-19T05:28:46;101316.15;;;15.09;38.55
70690;BME280;58267;51.156;17.044;2023-05-19T05:31:11;101315.79;;;15.00;38.39
70690;BME280;58267;51.156;17.044;2023-05-19T05:33:36;101309.90;;;15.15;38.54
70690;BME280;58267;51.156;17.044;2023-05-19T05:36:02;101307.90;;;15.00;38.17
70690;BME280;58267;51.156;17.044;2023-05-19T05:38:28;101305.94;;;14.81;38.63
70690;BME280;58267;51.156;17.044;2023-05-19T05:40:53;101307.99;;;15.27;38.26
70690;BME280;58267;51.156;17.044;2023-05-19T05:43:18;101309.99;;;15.06;38.22
70690;BME280;58267;51.156;17.044;2023-05-19T05:45:44;101308.58;;;14.94;38.28
70690;BME280;58267;51.156;17.044;2023-05-19T05:48:10;101308.25;;;15.23;38.33
70690;BME280;58267;51.156;17.044;2023-05-19T05:50:36;101305.98;;;14.93;38.64
70690;BME280;58267;51.156;17.044;2023-05-19T05:53:03;101305.71;;;15.16;38.52
70690;BME280;58267;51.156;17.044;2023-05-19T05:55:28;101305.05;;;15.24;38.39
70690;BME280;58267;51.156;17.044;2023-05-19T05:57:52;101306.65;;;15.35;38.24
70690;BME280;58267;51.156;17.044;2023-05-19T06:00:18;101307.21;;;15.46;38.22
70690;BME280;58267;51.156;17.044;2023-05-19T06:02:48;101304.43;;;15.33;38.30
70690;BME280;58267;51.156;17.044;2023-05-19T06:05:09;101302.59;;;15.44;38.06
70690;BME280;58267;51.156;17.044;2023-05-19T06:07:35;101306.07;;;15.28;38.09
70690;BME280;58267;51.156;17.044;2023-05-19T06:10:00;101309.44;;;15.23;38.24
70690;BME280;58267;51.156;17.044;2023-05-19T06:12:25;101311.73;;;15.44;38.06
70690;BME280;58267;51.156;17.044;2023-05-19T06:14:50;101319.08;;;15.65;37.65
70690;BME280;58267;51.156;17.044;2023-05-19T06:17:15;101321.18;;;15.65;37.64
70690;BME280;58267;51.156;17.044;2023-05-19T06:19:41;101325.75;;;15.62;37.52
70690;BME280;58267;51.156;17.044;2023-05-19T06:22:06;101325.22;;;15.55;37.79
70690;BME280;58267;51.156;17.044;2023-05-19T06:24:31;101326.60;;;15.39;37.48
70690;BME280;58267;51.156;17.044;2023-05-19T06:26:56;101324.92;;;15.71;37.75
70690;BME280;58267;51.156;17.044;2023-05-19T06:29:22;101328.95;;;15.77;37.73
70690;BME280;58267;51.156;17.044;2023-05-19T06:31:47;101329.59;;;15.95;37.48
70690;BME280;58267;51.156;17.044;2023-05-19T06:34:13;101326.85;;;15.91;37.58
70690;BME280;58267;51.156;17.044;2023-05-19T06:36:38;101329.44;;;15.70;37.73
70690;BME280;58267;51.156;17.044;2023-05-19T06:39:03;101330.68;;;15.88;37.45
70690;BME280;58267;51.156;17.044;2023-05-19T06:41:29;101330.09;;;15.99;37.61
70690;BME280;58267;51.156;17.044;2023-05-19T06:43:55;101331.31;;;15.94;37.77
70690;BME280;58267;51.156;17.044;2023-05-19T06:46:20;101333.08;;;15.73;37.98
70690;BME280;58267;51.156;17.044;2023-05-19T06:48:45;101330.91;;;15.56;37.71
70690;BME280;58267;51.156;17.044;2023-05-19T06:51:10;101332.35;;;15.41;37.78
70690;BME280;58267;51.156;17.044;2023-05-19T06:53:36;101331.15;;;15.37;38.02
70690;BME280;58267;51.156;17.044;2023-05-19T06:56:01;101331.68;;;15.40;37.73
70690;BME280;58267;51.156;17.044;2023-05-19T06:58:26;101333.22;;;15.55;37.90
70690;BME280;58267;51.156;17.044;2023-05-19T07:00:51;101334.86;;;15.61;37.96
70690;BME280;58267;51.156;17.044;2023-05-19T07:03:17;101335.50;;;15.60;37.81
70690;BME280;58267;51.156;17.044;2023-05-19T07:05:42;101337.89;;;15.49;37.74
70690;BME280;58267;51.156;17.044;2023-05-19T07:08:08;101340.08;;;15.56;37.75
70690;BME280;58267;51.156;17.044;2023-05-19T07:10:33;101339.37;;;15.81;37.90
70690;BME280;58267;51.156;17.044;2023-05-19T07:12:58;101342.12;;;15.72;38.01
70690;BME280;58267;51.156;17.044;2023-05-19T07:15:23;101339.59;;;15.67;37.86
70690;BME280;58267;51.156;17.044;2023-05-19T07:17:48;101339.22;;;15.68;37.92
70690;BME280;58267;51.156;17.044;2023-05-19T07:20:13;101339.87;;;15.75;37.66
70690;BME280;58267;51.156;17.044;2023-05-19T07:22:39;101340.78;;;15.80;37.67
70690;BME280;58267;51.156;17.044;2023-05-19T07:25:04;101340.04;;;15.48;37.48
70690;BME280;58267;51.156;17.044;2023-05-19T07:27:29;101338.36;;;16.21;37.22
70690;BME280;58267;51.156;17.044;2023-05-19T07:29:55;101338.27;;;15.97;37.49
70690;BME280;58267;51.156;17.044;2023-05-19T07:32:20;101342.53;;;16.10;37.46
70690;BME280;58267;51.156;17.044;2023-05-19T07:34:45;101342.36;;;16.03;37.40
70690;BME280;58267;51.156;17.044;2023-05-19T07:37:10;101343.70;;;16.15;37.13
70690;BME280;58267;51.156;17.044;2023-05-19T07:39:36;101344.45;;;16.31;36.81
70690;BME280;58267;51.156;17.044;2023-05-19T07:42:01;101343.91;;;16.44;36.93
70690;BME280;58267;51.156;17.044;2023-05-19T07:44:26;101339.38;;;16.30;36.85
70690;BME280;58267;51.156;17.044;2023-05-19T07:46:51;101338.94;;;15.87;37.10
70690;BME280;58267;51.156;17.044;2023-05-19T07:49:16;101342.11;;;16.07;37.01
70690;BME280;58267;51.156;17.044;2023-05-19T07:51:42;101343.47;;;16.30;36.95
70690;BME280;58267;51.156;17.044;2023-05-19T07:54:07;101343.89;;;15.59;37.22
70690;BME280;58267;51.156;17.044;2023-05-19T07:56:32;101342.46;;;15.94;37.02
70690;BME280;58267;51.156;17.044;2023-05-19T07:59:03;101343.71;;;15.84;37.09
70690;BME280;58267;51.156;17.044;2023-05-19T08:01:23;101343.34;;;15.70;37.47
70690;BME280;58267;51.156;17.044;2023-05-19T08:03:48;101345.40;;;16.09;37.28
70690;BME280;58267;51.156;17.044;2023-05-19T08:06:13;101346.59;;;15.87;38.02
70690;BME280;58267;51.156;17.044;2023-05-19T08:08:38;101348.42;;;15.73;37.96
70690;BME280;58267;51.156;17.044;2023-05-19T08:11:04;101344.90;;;15.58;37.78
70690;BME280;58267;51.156;17.044;2023-05-19T08:13:29;101349.25;;;15.95;37.69
70690;BME280;58267;51.156;17.044;2023-05-19T08:15:54;101348.14;;;15.76;38.14
70690;BME280;58267;51.156;17.044;2023-05-19T08:18:19;101338.76;;;16.06;37.88
70690;BME280;58267;51.156;17.044;2023-05-19T08:20:44;101340.04;;;16.17;37.80
70690;BME280;58267;51.156;17.044;2023-05-19T08:23:10;101341.01;;;15.70;37.67
70690;BME280;58267;51.156;17.044;2023-05-19T08:25:35;101339.04;;;16.14;37.88
70690;BME280;58267;51.156;17.044;2023-05-19T08:28:01;101338.51;;;16.23;37.69
70690;BME280;58267;51.156;17.044;2023-05-19T08:30:26;101339.36;;;15.65;37.58
70690;BME280;58267;51.156;17.044;2023-05-19T08:32:52;101339.39;;;16.12;37.45
70690;BME280;58267;51.156;17.044;2023-05-19T08:35:17;101335.50;;;16.29;37.49
70690;BME280;58267;51.156;17.044;2023-05-19T08:37:43;101344.68;;;15.92;37.61
70690;BME280;58267;51.156;17.044;2023-05-19T08:40:14;101340.25;;;16.00;37.00
70690;BME280;58267;51.156;17.044;2023-05-19T08:42:33;101338.15;;;16.06;37.16
70690;BME280;58267;51.156;17.044;2023-05-19T08:44:59;101335.57;;;16.15;36.95
70690;BME280;58267;51.156;17.044;2023-05-19T08:47:24;101335.50;;;16.40;36.91
70690;BME280;58267;51.156;17.044;2023-05-19T08:49:52;101332.31;;;16.00;36.81
70690;BME280;58267;51.156;17.044;2023-05-19T08:52:21;101335.49;;;16.40;36.88
70690;BME280;58267;51.156;17.044;2023-05-19T08:54:44;101332.47;;;16.47;36.18
70690;BME280;58267;51.156;17.044;2023-05-19T08:57:06;101333.05;;;16.45;36.34
70690;BME280;58267;51.156;17.044;2023-05-19T08:59:33;101332.04;;;16.73;36.50
70690;BME280;58267;51.156;17.044;2023-05-19T09:01:57;101333.67;;;16.86;36.37
70690;BME280;58267;51.156;17.044;2023-05-19T09:04:24;101336.88;;;17.03;36.13
70690;BME280;58267;51.156;17.044;2023-05-19T09:06:47;101336.72;;;16.95;35.53
70690;BME280;58267;51.156;17.044;2023-05-19T09:09:13;101334.50;;;16.94;35.22
70690;BME280;58267;51.156;17.044;2023-05-19T09:11:38;101335.42;;;16.91;35.01
70690;BME280;58267;51.156;17.044;2023-05-19T09:14:04;101337.55;;;17.00;35.07
70690;BME280;58267;51.156;17.044;2023-05-19T09:16:29;101338.81;;;17.31;35.05
70690;BME280;58267;51.156;17.044;2023-05-19T09:18:54;101331.28;;;17.49;34.80
70690;BME280;58267;51.156;17.044;2023-05-19T09:21:19;101330.10;;;17.09;34.59
70690;BME280;58267;51.156;17.044;2023-05-19T09:23:46;101328.97;;;17.33;34.28
70690;BME280;58267;51.156;17.044;2023-05-19T09:26:10;101331.41;;;17.12;34.42
70690;BME280;58267;51.156;17.044;2023-05-19T09:28:36;101331.36;;;17.14;34.12
70690;BME280;58267;51.156;17.044;2023-05-19T09:31:01;101333.06;;;17.44;34.62
70690;BME280;58267;51.156;17.044;2023-05-19T09:33:25;101329.14;;;17.10;34.55
70690;BME280;58267;51.156;17.044;2023-05-19T09:35:52;101326.96;;;17.49;33.93
70690;BME280;58267;51.156;17.044;2023-05-19T09:38:17;101325.40;;;17.04;33.70
70690;BME280;58267;51.156;17.044;2023-05-19T09:40:41;101326.10;;;17.37;34.18
70690;BME280;58267;51.156;17.044;2023-05-19T09:43:07;101329.41;;;17.07;35.18
70690;BME280;58267;51.156;17.044;2023-05-19T09:45:31;101324.81;;;17.30;35.80
70690;BME280;58267;51.156;17.044;2023-05-19T09:47:56;101319.30;;;17.13;35.38
70690;BME280;58267;51.156;17.044;2023-05-19T09:50:21;101319.35;;;17.19;36.03
70690;BME280;58267;51.156;17.044;2023-05-19T09:52:47;101315.81;;;17.34;35.78
70690;BME280;58267;51.156;17.044;2023-05-19T09:55:13;101314.44;;;17.65;35.06
70690;BME280;58267;51.156;17.044;2023-05-19T09:57:39;101313.17;;;17.15;34.92
70690;BME280;58267;51.156;17.044;2023-05-19T10:00:05;101312.11;;;17.64;34.45
70690;BME280;58267;51.156;17.044;2023-05-19T10:02:30;101307.38;;;17.87;34.45
70690;BME280;58267;51.156;17.044;2023-05-19T10:04:55;101303.36;;;18.09;34.55
70690;BME280;58267;51.156;17.044;2023-05-19T10:07:20;101298.81;;;18.00;34.15
70690;BME280;58267;51.156;17.044;2023-05-19T10:09:45;101297.21;;;18.19;34.55
70690;BME280;58267;51.156;17.044;2023-05-19T10:12:11;101292.47;;;17.51;34.54
70690;BME280;58267;51.156;17.044;2023-05-19T10:14:36;101293.69;;;17.86;35.01
70690;BME280;58267;51.156;17.044;2023-05-19T10:17:01;101292.67;;;18.06;34.86
70690;BME280;58267;51.156;17.044;2023-05-19T10:19:27;101294.42;;;18.11;34.60
70690;BME280;58267;51.156;17.044;2023-05-19T10:21:52;101283.84;;;18.05;34.53
70690;BME280;58267;51.156;17.044;2023-05-19T10:24:17;101280.40;;;17.88;34.84
70690;BME280;58267;51.156;17.044;2023-05-19T10:26:44;101280.53;;;17.99;34.74
70690;BME280;58267;51.156;17.044;2023-05-19T10:29:07;101288.95;;;17.95;34.95
70690;BME280;58267;51.156;17.044;2023-05-19T10:31:33;101283.68;;;18.00;34.59
70690;BME280;58267;51.156;17.044;2023-05-19T10:34:06;101284.48;;;17.60;34.42
70690;BME280;58267;51.156;17.044;2023-05-19T10:36:33;101285.64;;;17.84;34.32
70690;BME280;58267;51.156;17.044;2023-05-19T10:38:55;101285.16;;;17.82;34.50
70690;BME280;58267;51.156;17.044;2023-05-19T10:41:19;101278.71;;;18.41;33.89
70690;BME280;58267;51.156;17.044;2023-05-19T10:43:47;101280.54;;;18.37;33.77
70690;BME280;58267;51.156;17.044;2023-05-19T10:46:04;101285.32;;;17.81;34.60
70690;BME280;58267;51.156;17.044;2023-05-19T10:48:32;101289.86;;;18.15;34.32
70690;BME280;58267;51.156;17.044;2023-05-19T10:50:55;101287.31;;;18.09;34.28
70690;BME280;58267;51.156;17.044;2023-05-19T10:53:20;101290.79;;;17.84;34.45
70690;BME280;58267;51.156;17.044;2023-05-19T10:55:46;101293.38;;;18.03;34.31
70690;BME280;58267;51.156;17.044;2023-05-19T10:58:11;101294.21;;;17.58;34.84
70690;BME280;58267;51.156;17.044;2023-05-19T11:00:40;101292.96;;;17.54;34.61
70690;BME280;58267;51.156;17.044;2023-05-19T11:05:28;101293.71;;;17.78;34.83
70690;BME280;58267;51.156;17.044;2023-05-19T11:07:55;101292.71;;;17.93;34.84
70690;BME280;58267;51.156;17.044;2023-05-19T11:10:22;101296.03;;;18.02;34.69
70690;BME280;58267;51.156;17.044;2023-05-19T11:12:44;101295.76;;;17.99;34.27
70690;BME280;58267;51.156;17.044;2023-05-19T11:15:12;101294.89;;;17.69;34.67
70690;BME280;58267;51.156;17.044;2023-05-19T11:17:35;101296.93;;;17.79;35.32
70690;BME280;58267;51.156;17.044;2023-05-19T11:20:00;101293.05;;;17.63;36.09
70690;BME280;58267;51.156;17.044;2023-05-19T11:22:26;101289.57;;;17.63;36.90
70690;BME280;58267;51.156;17.044;2023-05-19T11:24:52;101288.95;;;17.57;36.86
70690;BME280;58267;51.156;17.044;2023-05-19T11:27:23;101290.22;;;17.48;37.13
70690;BME280;58267;51.156;17.044;2023-05-19T11:29:43;101287.67;;;17.61;37.03
70690;BME280;58267;51.156;17.044;2023-05-19T11:32:08;101287.17;;;17.41;37.06
70690;BME280;58267;51.156;17.044;2023-05-19T11:34:34;101287.14;;;17.34;37.47
70690;BME280;58267;51.156;17.044;2023-05-19T11:36:59;101291.04;;;17.05;37.71
70690;BME280;58267;51.156;17.044;2023-05-19T11:39:25;101287.95;;;16.95;37.37
70690;BME280;58267;51.156;17.044;2023-05-19T11:41:50;101289.21;;;17.00;36.74
70690;BME280;58267;51.156;17.044;2023-05-19T11:44:16;101288.94;;;16.96;36.89
70690;BME280;58267;51.156;17.044;2023-05-19T11:46:42;101287.89;;;17.30;36.96
70690;BME280;58267;51.156;17.044;2023-05-19T11:49:07;101288.72;;;17.08;37.00
70690;BME280;58267;51.156;17.044;2023-05-19T11:51:32;101287.57;;;17.65;36.65
70690;BME280;58267;51.156;17.044;2023-05-19T11:53:57;101290.01;;;17.14;36.78
70690;BME280;58267;51.156;17.044;2023-05-19T11:56:23;101289.50;;;17.19;36.78
70690;BME280;58267;51.156;17.044;2023-05-19T11:58:52;101291.76;;;17.28;36.50
70690;BME280;58267;51.156;17.044;2023-05-19T12:01:14;101289.56;;;17.16;36.59
70690;BME280;58267;51.156;17.044;2023-05-19T12:03:40;101288.19;;;17.40;36.33
70690;BME280;58267;51.156;17.044;2023-05-19T12:06:07;101291.52;;;17.35;36.65
70690;BME280;58267;51.156;17.044;2023-05-19T12:08:31;101290.74;;;17.33;36.70
70690;BME280;58267;51.156;17.044;2023-05-19T12:10:56;101293.07;;;17.12;36.23
70690;BME280;58267;51.156;17.044;2023-05-19T12:13:23;101291.36;;;17.03;36.54
70690;BME280;58267;51.156;17.044;2023-05-19T12:15:50;101290.18;;;17.02;36.73
70690;BME280;58267;51.156;17.044;2023-05-19T12:18:15;101288.59;;;16.79;36.77
70690;BME280;58267;51.156;17.044;2023-05-19T12:20:40;101289.05;;;16.72;37.11
70690;BME280;58267;51.156;17.044;2023-05-19T12:23:06;101287.51;;;16.79;37.16
70690;BME280;58267;51.156;17.044;2023-05-19T12:25:31;101288.57;;;17.29;37.12
70690;BME280;58267;51.156;17.044;2023-05-19T12:27:57;101290.56;;;16.98;36.89
70690;BME280;58267;51.156;17.044;2023-05-19T12:30:25;101289.44;;;17.50;37.05
70690;BME280;58267;51.156;17.044;2023-05-19T12:32:47;101290.65;;;17.28;37.03
70690;BME280;58267;51.156;17.044;2023-05-19T12:35:13;101290.50;;;16.97;36.95
70690;BME280;58267;51.156;17.044;2023-05-19T12:37:40;101290.05;;;17.04;37.09